METAR LSZS 121720Z AUTO 31007KT 280V340 9999 NCD 16/00 Q1019=